^^
Meteo Knjazevac Station Historical Data
Daily Summary for May 1, 2021 Units:  Metric    English   Both
Daily Weekly Monthly Yearly Custom
  High: Low: Average:
Temperature: 22.7 °C 12.7 °C 17.1 °C
Dew Point: 14.8 °C 10.9 °C 12.9 °C
Humidity: 91% 59% 77%
Wind Speed: 19.3km/h 0km/h 5.8km/h
Wind Gust: 32.2km/h - -
Wind- - WSW
Pressure: 1020.9 hPa 1019.2 hPa -
Precipitation: 0 mm    
Historical Graphs
 
 
Tabular Data for May 1, 2021
Time Temperature Dew Point Pressure Wind Wind Speed Wind Gust Humidity Rainfall Rate (Hourly) solar Conditions
00:00 14.8 °C 11.6 °C 1019.2 hPa Calm   3.2 km/h 81% 0 mm 0 W/m2
00:10 14.8 °C 11.4 °C 1019.5 hPa Calm   4.8 km/h 80% 0 mm 0 W/m2
00:20 15 °C 11.6 °C 1019.5 hPa Calm   4.8 km/h 80% 0 mm 0 W/m2
00:30 15 °C 11.8 °C 1019.5 hPa WNW 1.6 km/h 3.2 km/h 81% 0 mm 0 W/m2
00:40 14.8 °C 11.6 °C 1019.5 hPa NW 1.6 km/h 4.8 km/h 81% 0 mm 0 W/m2
00:50 14.7 °C 11.4 °C 1019.5 hPa Calm   3.2 km/h 81% 0 mm 0 W/m2
01:00 14.7 °C 11.8 °C 1019.9 hPa SW 1.6 km/h 3.2 km/h 83% 0 mm 0 W/m2
01:10 14.7 °C 11.8 °C 1019.9 hPa Calm   3.2 km/h 83% 0 mm 0 W/m2
01:20 14.7 °C 11.8 °C 1019.9 hPa Calm   3.2 km/h 83% 0 mm 0 W/m2
01:30 14.7 °C 11.8 °C 1019.9 hPa NNW 1.6 km/h 3.2 km/h 83% 0 mm 0 W/m2
01:40 14.8 °C 11.9 °C 1019.9 hPa Calm   3.2 km/h 83% 0 mm 0 W/m2
01:50 14.8 °C 12.1 °C 1019.9 hPa Calm   3.2 km/h 84% 0 mm 0 W/m2
02:00 14.8 °C 12.1 °C 1019.5 hPa Calm   4.8 km/h 84% 0 mm 0 W/m2
02:10 14.8 °C 12.1 °C 1019.9 hPa NNE 1.6 km/h 3.2 km/h 84% 0 mm 0 W/m2
02:20 14.7 °C 12 °C 1019.9 hPa Calm   3.2 km/h 84% 0 mm 0 W/m2
02:30 14.8 °C 11.9 °C 1019.9 hPa Calm   3.2 km/h 83% 0 mm 0 W/m2
02:40 14.8 °C 11.9 °C 1019.9 hPa Calm   1.6 km/h 83% 0 mm 0 W/m2
02:50 14.8 °C 12.1 °C 1019.9 hPa Calm   3.2 km/h 84% 0 mm 0 W/m2
03:00 14.8 °C 11.9 °C 1019.5 hPa Calm   3.2 km/h 83% 0 mm 0 W/m2
03:10 14.8 °C 12.3 °C 1019.5 hPa West 1.6 km/h 4.8 km/h 85% 0 mm 0 W/m2
03:20 14.7 °C 12.2 °C 1019.9 hPa WNW 1.6 km/h 4.8 km/h 85% 0 mm 0 W/m2
03:30 14.7 °C 12.2 °C 1019.9 hPa Calm   6.4 km/h 85% 0 mm 0 W/m2
03:40 14.6 °C 12.1 °C 1019.9 hPa WSW 1.6 km/h 3.2 km/h 85% 0 mm 0 W/m2
03:50 14.4 °C 11.9 °C 1019.9 hPa WSW 1.6 km/h 3.2 km/h 85% 0 mm 0 W/m2
04:00 14.3 °C 12 °C 1019.5 hPa Calm   3.2 km/h 86% 0 mm 0 W/m2
04:10 14.2 °C 11.9 °C 1019.5 hPa WNW 1.6 km/h 4.8 km/h 86% 0 mm 0 W/m2
04:20 14.2 °C 11.9 °C 1019.5 hPa NNW 1.6 km/h 3.2 km/h 86% 0 mm 0 W/m2
04:30 14.1 °C 11.8 °C 1019.5 hPa NNW 1.6 km/h 3.2 km/h 86% 0 mm 0 W/m2
04:40 13.9 °C 11.6 °C 1019.5 hPa Calm   3.2 km/h 86% 0 mm 0 W/m2
04:50 13.8 °C 11.8 °C 1019.5 hPa Calm   3.2 km/h 88% 0 mm 0 W/m2
05:00 13.6 °C 11.7 °C 1019.9 hPa Calm     88% 0 mm 0 W/m2
05:10 13.4 °C 11.4 °C 1019.9 hPa Calm   3.2 km/h 88% 0 mm 0 W/m2
05:20 13.2 °C 11.3 °C 1019.9 hPa Calm   3.2 km/h 88% 0 mm 0 W/m2
05:30 13.1 °C 11.2 °C 1019.9 hPa Calm   3.2 km/h 88% 0 mm 0 W/m2
05:40 12.9 °C 11.1 °C 1019.9 hPa Calm   3.2 km/h 89% 0 mm 0 W/m2
05:50 12.7 °C 10.9 °C 1019.9 hPa Calm   3.2 km/h 89% 0 mm 0 W/m2
06:00 12.7 °C 11.1 °C 1019.9 hPa Calm   3.2 km/h 90% 0 mm 7 W/m2
06:10 12.7 °C 11.1 °C 1020.2 hPa Calm   3.2 km/h 90% 0 mm 17 W/m2
06:20 12.8 °C 11.4 °C 1020.2 hPa NE 1.6 km/h 4.8 km/h 91% 0 mm 28 W/m2
06:30 12.9 °C 11.4 °C 1020.2 hPa NE 1.6 km/h 3.2 km/h 91% 0 mm 46 W/m2
06:40 12.9 °C 11.4 °C 1020.2 hPa Calm   3.2 km/h 91% 0 mm 83 W/m2
06:50 13.1 °C 11.7 °C 1020.5 hPa Calm   3.2 km/h 91% 0 mm 102 W/m2
07:00 13.4 °C 11.9 °C 1020.5 hPa NE 1.6 km/h 4.8 km/h 91% 0 mm 126 W/m2
07:10 13.7 °C 12.1 °C 1020.5 hPa ENE 1.6 km/h 4.8 km/h 90% 0 mm 58 W/m2
07:20 14.1 °C 12.3 °C 1020.5 hPa Calm   6.4 km/h 89% 0 mm 71 W/m2
07:30 14.4 °C 12.6 °C 1020.2 hPa NNW 1.6 km/h 4.8 km/h 89% 0 mm 99 W/m2
07:40 14.6 °C 13 °C 1020.2 hPa West 3.2 km/h 6.4 km/h 90% 0 mm 262 W/m2
07:50 14.8 °C 13.2 °C 1020.2 hPa West 3.2 km/h 8 km/h 90% 0 mm 301 W/m2
08:00 15.4 °C 13.8 °C 1020.5 hPa West 4.8 km/h 11.3 km/h 90% 0 mm 301 W/m2
08:10 16.2 °C 14.2 °C 1020.5 hPa SW 9.7 km/h 14.5 km/h 88% 0 mm 362 W/m2
08:20 16.8 °C 14.3 °C 1020.5 hPa SW 12.9 km/h 17.7 km/h 85% 0 mm 392 W/m2
08:30 17.3 °C 14.4 °C 1020.5 hPa SW 8 km/h 16.1 km/h 83% 0 mm 422 W/m2
08:40 18.1 °C 14.2 °C 1020.5 hPa WSW 9.7 km/h 19.3 km/h 78% 0 mm 452 W/m2
08:50 18.7 °C 14.2 °C 1020.5 hPa West 4.8 km/h 20.9 km/h 75% 0 mm 459 W/m2
09:00 19.3 °C 14.6 °C 1020.5 hPa WSW 8 km/h 16.1 km/h 74% 0 mm 509 W/m2
09:10 19.7 °C 14.7 °C 1020.5 hPa SW 9.7 km/h 17.7 km/h 73% 0 mm 537 W/m2
09:20 20 °C 14.8 °C 1020.5 hPa SW 14.5 km/h 24.1 km/h 72% 0 mm 564 W/m2
09:30 20.3 °C 14.7 °C 1020.5 hPa WSW 11.3 km/h 25.7 km/h 70% 0 mm 589 W/m2
09:40 20.6 °C 14.5 °C 1020.5 hPa West 9.7 km/h 24.1 km/h 68% 0 mm 614 W/m2
09:50 20.9 °C 14.6 °C 1020.5 hPa WSW 12.9 km/h 24.1 km/h 67% 0 mm 638 W/m2
10:00 21.2 °C 14.3 °C 1020.5 hPa WSW 12.9 km/h 24.1 km/h 65% 0 mm 661 W/m2
10:10 21.4 °C 14.6 °C 1020.5 hPa WSW 11.3 km/h 22.5 km/h 65% 0 mm 682 W/m2
10:20 21.4 °C 14.1 °C 1020.5 hPa WSW 19.3 km/h 32.2 km/h 63% 0.25 mm 702 W/m2
10:30 21.4 °C 13.8 °C 1020.5 hPa WSW 14.5 km/h 32.2 km/h 62% 0.25 mm 721 W/m2
10:40 21.7 °C 14.3 °C 1020.5 hPa WSW 14.5 km/h 29 km/h 63% 0 mm 739 W/m2
10:50 22.1 °C 14.5 °C 1020.5 hPa West 14.5 km/h 29 km/h 62% 0 mm 606 W/m2
11:00 22.1 °C 13.9 °C 1020.9 hPa West 12.9 km/h 30.6 km/h 60% 0 mm 769 W/m2
11:10 22.3 °C 14.2 °C 1020.9 hPa WSW 16.1 km/h 24.1 km/h 60% 0 mm 783 W/m2
11:20 22.5 °C 14.3 °C 1020.5 hPa WSW 16.1 km/h 27.4 km/h 60% 0 mm 794 W/m2
11:30 22.6 °C 14.4 °C 1020.5 hPa West 16.1 km/h 32.2 km/h 60% 0 mm 805 W/m2
11:40 22.7 °C 14.3 °C 1020.5 hPa West 16.1 km/h 32.2 km/h 59% 0 mm 520 W/m2
11:50 22.4 °C 14.3 °C 1020.5 hPa West 12.9 km/h 32.2 km/h 60% 0 mm 446 W/m2
12:00 22.1 °C 13.9 °C 1020.5 hPa West 11.3 km/h 32.2 km/h 60% 0 mm 356 W/m2
12:10 21.7 °C 14.1 °C 1020.5 hPa WNW 12.9 km/h 29 km/h 62% 0 mm 281 W/m2
12:20 21.5 °C 13.9 °C 1020.5 hPa WNW 12.9 km/h 24.1 km/h 62% 0 mm 321 W/m2
12:30 21.4 °C 14.1 °C 1020.5 hPa WNW 9.7 km/h 19.3 km/h 63% 0 mm 387 W/m2
12:40 21.4 °C 14.1 °C 1020.5 hPa WNW 9.7 km/h 20.9 km/h 63% 0 mm 300 W/m2
12:50 21.1 °C 13.8 °C 1020.5 hPa West 14.5 km/h 24.1 km/h 63% 0 mm 166 W/m2
13:00 20.9 °C 13.6 °C 1020.5 hPa West 12.9 km/h 20.9 km/h 63% 0 mm 260 W/m2
13:10 20.9 °C 13.8 °C 1020.5 hPa West 4.8 km/h 22.5 km/h 64% 0 mm 477 W/m2
13:20 21.3 °C 13.9 °C 1020.5 hPa West 9.7 km/h 20.9 km/h 63% 0 mm 347 W/m2
13:30 21.5 °C 14.2 °C 1020.5 hPa West 11.3 km/h 19.3 km/h 63% 0 mm 200 W/m2
13:40 21.3 °C 13.9 °C 1020.5 hPa WNW 12.9 km/h 20.9 km/h 63% 0 mm 196 W/m2
13:50 21.1 °C 13.8 °C 1020.5 hPa West 11.3 km/h 22.5 km/h 63% 0 mm 329 W/m2
14:00 21.1 °C 14 °C 1020.5 hPa West 9.7 km/h 27.4 km/h 64% 0 mm 252 W/m2
14:10 21.3 °C 13.9 °C 1020.2 hPa West 12.9 km/h 25.7 km/h 63% 0 mm 399 W/m2
14:20 21.4 °C 13.8 °C 1020.2 hPa West 12.9 km/h 24.1 km/h 62% 0 mm 212 W/m2
14:30 21.4 °C 13.8 °C 1020.2 hPa WNW 12.9 km/h 25.7 km/h 62% 0 mm 583 W/m2
Knjazevac, Serbia
Compliments of Weather Underground - 2 mb